createdAt,value
2022-10-13T00:01:24.797Z,4.94
2022-10-13T00:04:36.671Z,4.96
2022-10-13T00:07:48.343Z,4.95
2022-10-13T00:11:00.398Z,4.95
2022-10-13T00:14:13.516Z,4.87
2022-10-13T00:17:25.123Z,4.75
2022-10-13T00:20:36.909Z,4.76
2022-10-13T00:23:49.369Z,4.78
2022-10-13T00:27:03.322Z,4.74
2022-10-13T00:30:17.095Z,4.62
2022-10-13T00:33:29.111Z,4.54
2022-10-13T00:36:40.982Z,4.55
2022-10-13T00:39:52.695Z,4.45
2022-10-13T00:43:06.367Z,4.47
2022-10-13T00:46:18.082Z,4.47
2022-10-13T00:49:30.102Z,4.49
2022-10-13T00:52:42.844Z,4.32
2022-10-13T00:55:56.974Z,4.21
2022-10-13T00:59:10.506Z,4.16
2022-10-13T01:02:24.234Z,4.09
2022-10-13T01:05:38.989Z,4.13
2022-10-13T01:08:50.779Z,4.09
2022-10-13T01:12:11.679Z,4.15
2022-10-13T01:15:30.306Z,4.22
2022-10-13T01:18:48.421Z,4.13
2022-10-13T01:22:09.974Z,4.10
2022-10-13T01:25:33.367Z,4.18
2022-10-13T01:29:05.277Z,4.23
2022-10-13T01:32:22.747Z,4.23
2022-10-13T01:35:53.354Z,4.14
2022-10-13T01:39:10.220Z,4.21
2022-10-13T01:42:26.861Z,4.21
2022-10-13T01:45:43.041Z,4.18
2022-10-13T01:48:59.876Z,4.15
2022-10-13T01:52:18.129Z,4.13
2022-10-13T01:55:32.000Z,4.14
2022-10-13T01:58:44.814Z,4.04
2022-10-13T02:02:07.042Z,4.00
2022-10-13T02:05:26.450Z,3.98
2022-10-13T02:08:43.522Z,3.93
2022-10-13T02:11:58.234Z,3.91
2022-10-13T02:15:16.927Z,3.81
2022-10-13T02:18:33.952Z,3.73
2022-10-13T02:21:43.923Z,3.75
2022-10-13T02:24:56.402Z,3.78
2022-10-13T02:28:10.033Z,3.81
2022-10-13T02:31:23.573Z,3.76
2022-10-13T02:34:35.272Z,3.72
2022-10-13T02:37:46.964Z,3.68
2022-10-13T02:40:58.818Z,3.67
2022-10-13T02:44:11.408Z,3.70
2022-10-13T02:47:26.125Z,3.67
2022-10-13T02:50:37.968Z,3.66
2022-10-13T02:53:49.624Z,3.77
2022-10-13T02:57:01.250Z,3.87
2022-10-13T03:00:16.860Z,3.76
2022-10-13T03:03:28.531Z,3.66
2022-10-13T03:06:40.766Z,3.61
2022-10-13T03:09:52.598Z,3.61
2022-10-13T03:13:04.848Z,3.59
2022-10-13T03:16:16.785Z,3.53
2022-10-13T03:19:28.725Z,3.56
2022-10-13T03:22:40.977Z,3.56
2022-10-13T03:25:52.655Z,3.52
2022-10-13T03:29:04.328Z,3.43
2022-10-13T03:32:16.539Z,3.41
2022-10-13T03:35:28.393Z,3.38
2022-10-13T03:38:41.178Z,3.43
2022-10-13T03:41:53.159Z,3.35
2022-10-13T03:45:04.829Z,3.37
2022-10-13T03:48:18.406Z,3.23
2022-10-13T03:51:30.355Z,3.11
2022-10-13T03:54:41.995Z,3.35
2022-10-13T03:57:53.634Z,3.24
2022-10-13T04:01:09.976Z,3.22
2022-10-13T04:04:22.000Z,3.09
2022-10-13T04:07:34.822Z,3.20
2022-10-13T04:10:48.952Z,3.11
2022-10-13T04:14:01.457Z,3.20
2022-10-13T04:17:13.278Z,3.19
2022-10-13T04:20:25.105Z,3.13
2022-10-13T04:23:38.166Z,3.04
2022-10-13T04:26:50.513Z,3.08
2022-10-13T04:30:02.432Z,2.96
2022-10-13T04:33:14.535Z,2.94
2022-10-13T04:36:27.094Z,2.84
2022-10-13T04:39:39.143Z,2.92
2022-10-13T04:42:51.035Z,2.91
2022-10-13T04:46:08.249Z,2.81
2022-10-13T05:04:40.384Z,2.74
2022-10-13T05:07:52.256Z,2.73
2022-10-13T05:11:06.831Z,2.77
2022-10-13T05:14:21.507Z,2.67
2022-10-13T05:17:35.791Z,2.70
2022-10-13T05:20:50.183Z,2.77
2022-10-13T05:24:05.372Z,2.83
2022-10-13T05:27:20.339Z,2.77
2022-10-13T05:30:32.320Z,2.83
2022-10-13T05:33:46.065Z,2.90
2022-10-13T05:36:59.723Z,2.79
2022-10-13T05:40:15.451Z,2.91
2022-10-13T05:43:27.218Z,2.91
2022-10-13T05:46:39.890Z,2.85
2022-10-13T05:49:51.669Z,2.92
2022-10-13T05:53:04.385Z,3.10
2022-10-13T05:56:20.362Z,3.19
2022-10-13T05:59:33.642Z,3.25
2022-10-13T06:02:50.949Z,3.22
2022-10-13T06:06:03.856Z,3.33
2022-10-13T06:09:16.173Z,3.24
2022-10-13T06:12:28.797Z,3.25
2022-10-13T06:15:40.808Z,3.15
2022-10-13T06:18:53.531Z,3.03
2022-10-13T06:22:05.464Z,3.20
2022-10-13T06:25:17.972Z,3.13
2022-10-13T06:28:31.127Z,3.21
2022-10-13T06:31:42.869Z,3.22
2022-10-13T06:34:54.718Z,3.23
2022-10-13T06:38:06.354Z,3.44
2022-10-13T06:41:19.226Z,3.45
2022-10-13T06:44:31.175Z,3.59
2022-10-13T06:47:44.678Z,3.62
2022-10-13T06:50:56.929Z,3.56
2022-10-13T06:54:08.642Z,3.59
2022-10-13T06:57:20.365Z,3.51
2022-10-13T07:00:32.004Z,3.52
2022-10-13T07:03:43.843Z,3.56
2022-10-13T07:06:55.604Z,3.74
2022-10-13T07:10:09.521Z,3.85
2022-10-13T07:16:34.145Z,3.99
2022-10-13T07:19:48.705Z,4.02
2022-10-13T07:23:01.714Z,4.18
2022-10-13T07:26:17.662Z,4.40
2022-10-13T07:29:29.396Z,4.49
2022-10-13T07:32:42.404Z,4.48
2022-10-13T07:35:54.250Z,4.48
2022-10-13T07:39:06.913Z,4.51
2022-10-13T07:42:19.144Z,4.64
2022-10-13T07:45:31.349Z,4.73
2022-10-13T07:48:43.773Z,4.73
2022-10-13T07:51:55.992Z,4.87
2022-10-13T07:55:07.993Z,5.00
2022-10-13T07:58:19.659Z,5.25
2022-10-13T08:01:32.460Z,5.40
2022-10-13T08:04:44.679Z,5.51
2022-10-13T08:07:58.458Z,5.88
2022-10-13T08:11:16.190Z,6.09
2022-10-13T08:14:27.517Z,6.07
2022-10-13T08:17:39.966Z,6.67
2022-10-13T08:20:59.254Z,7.25
2022-10-13T08:24:06.294Z,8.21
2022-10-13T08:27:22.425Z,8.98
2022-10-13T08:30:34.495Z,9.49
2022-10-13T08:33:47.613Z,10.26
2022-10-13T08:37:01.086Z,10.80
2022-10-13T08:40:18.619Z,11.52
2022-10-13T08:43:32.123Z,12.09
2022-10-13T08:46:51.039Z,12.35
2022-10-13T08:50:04.337Z,12.38
2022-10-13T08:53:25.643Z,12.85
2022-10-13T08:56:40.443Z,13.30
2022-10-13T08:59:52.361Z,13.88
2022-10-13T09:03:11.924Z,13.48
2022-10-13T09:06:31.870Z,13.85
2022-10-13T09:09:44.315Z,13.94
2022-10-13T09:12:57.007Z,14.29
2022-10-13T09:16:09.347Z,14.71
2022-10-13T09:19:33.375Z,14.31
2022-10-13T09:22:46.146Z,13.91
2022-10-13T09:26:01.454Z,13.63
2022-10-13T09:29:22.131Z,13.63
2022-10-13T09:32:34.551Z,13.94
2022-10-13T09:35:50.356Z,14.25
2022-10-13T09:39:20.223Z,14.34
2022-10-13T09:42:34.961Z,15.05
2022-10-13T09:45:49.792Z,14.78
2022-10-13T09:49:07.075Z,14.82
2022-10-13T09:52:27.788Z,14.54
2022-10-13T09:55:41.948Z,14.32
2022-10-13T09:59:02.671Z,14.32
2022-10-13T10:02:31.411Z,13.83
2022-10-13T10:05:51.753Z,14.11
2022-10-13T10:09:10.146Z,14.04
2022-10-13T10:12:27.954Z,14.13
2022-10-13T10:15:49.647Z,14.06
2022-10-13T10:19:09.896Z,14.18
2022-10-13T10:22:29.716Z,14.38
2022-10-13T10:25:45.802Z,14.25
2022-10-13T10:29:26.922Z,14.51
2022-10-13T10:32:47.142Z,14.90
2022-10-13T10:36:06.039Z,15.06
2022-10-13T10:39:25.266Z,15.58
2022-10-13T10:42:52.454Z,15.86
2022-10-13T10:46:03.851Z,16.35
2022-10-13T10:49:24.399Z,16.32
2022-10-13T10:52:41.712Z,16.81
2022-10-13T10:55:59.732Z,16.91
2022-10-13T10:59:30.136Z,17.03
2022-10-13T11:02:56.325Z,17.17
2022-10-13T11:06:20.631Z,17.29
2022-10-13T11:10:07.164Z,17.41
2022-10-13T11:13:26.192Z,17.67
2022-10-13T11:16:43.467Z,17.62
2022-10-13T11:19:59.353Z,17.63
2022-10-13T11:23:38.027Z,17.68
2022-10-13T11:26:51.144Z,17.72
2022-10-13T11:30:06.726Z,17.88
2022-10-13T11:34:00.127Z,18.01
2022-10-13T11:37:23.209Z,18.17
2022-10-13T11:40:43.226Z,18.32
2022-10-13T11:44:00.799Z,18.22
2022-10-13T11:47:19.846Z,18.30
2022-10-13T11:50:39.991Z,18.49
2022-10-13T11:54:00.230Z,18.54
2022-10-13T11:57:28.357Z,18.46
2022-10-13T12:00:41.884Z,18.55
2022-10-13T12:03:54.677Z,18.42
2022-10-13T12:07:11.732Z,18.31
2022-10-13T12:10:29.868Z,18.17
2022-10-13T12:13:43.784Z,17.99
2022-10-13T12:17:03.100Z,17.76
2022-10-13T12:20:30.755Z,17.64
2022-10-13T12:23:41.239Z,17.59
2022-10-13T12:26:53.310Z,17.38
2022-10-13T12:30:07.678Z,17.27
2022-10-13T12:33:32.518Z,17.13
2022-10-13T12:36:44.506Z,16.99
2022-10-13T12:39:56.752Z,17.02
2022-10-13T12:43:11.905Z,17.17
2022-10-13T12:46:44.866Z,17.16
2022-10-13T12:49:56.772Z,17.08
2022-10-13T12:53:25.652Z,17.07
2022-10-13T12:56:39.363Z,17.28
2022-10-13T12:59:52.580Z,17.34
2022-10-13T13:03:06.897Z,17.26
2022-10-13T13:06:37.310Z,17.37
2022-10-13T13:09:51.076Z,17.46
2022-10-13T13:13:25.679Z,17.54
2022-10-13T13:16:37.389Z,17.51
2022-10-13T13:19:53.161Z,17.48
2022-10-13T13:23:05.722Z,17.58
2022-10-13T13:26:23.811Z,17.63
2022-10-13T13:29:35.408Z,17.46
2022-10-13T13:32:47.335Z,17.38
2022-10-13T13:35:59.388Z,17.42
2022-10-13T13:39:13.477Z,17.38
2022-10-13T13:42:27.249Z,17.24
2022-10-13T13:45:39.510Z,17.23
2022-10-13T13:48:51.926Z,17.34
2022-10-13T13:52:03.744Z,17.25
2022-10-13T13:55:25.056Z,17.02
2022-10-13T13:58:36.773Z,16.86
2022-10-13T14:01:48.542Z,16.74
2022-10-13T14:05:00.487Z,16.68
2022-10-13T14:08:14.030Z,16.62
2022-10-13T14:11:26.276Z,16.45
2022-10-13T14:14:39.196Z,16.28
2022-10-13T14:17:53.037Z,16.14
2022-10-13T14:21:08.448Z,16.05
2022-10-13T14:24:20.420Z,15.97
2022-10-13T14:27:34.134Z,15.90
2022-10-13T14:30:49.344Z,15.89
2022-10-13T14:34:01.510Z,15.89
2022-10-13T14:37:15.229Z,15.86
2022-10-13T14:40:27.372Z,15.79
2022-10-13T14:43:41.498Z,15.74
2022-10-13T14:46:53.295Z,15.71
2022-10-13T14:50:05.182Z,15.67
2022-10-13T14:53:18.003Z,15.58
2022-10-13T14:56:31.975Z,15.52
2022-10-13T14:59:43.633Z,15.44
2022-10-13T15:02:55.362Z,15.34
2022-10-13T15:06:07.837Z,15.31
2022-10-13T15:09:21.099Z,15.28
2022-10-13T15:12:33.255Z,15.21
2022-10-13T15:15:51.604Z,15.14
2022-10-13T15:19:03.956Z,15.06
2022-10-13T15:22:15.775Z,15.03
2022-10-13T15:25:27.367Z,14.95
2022-10-13T15:28:43.324Z,14.87
2022-10-13T15:31:55.250Z,14.77
2022-10-13T15:35:06.958Z,14.63
2022-10-13T15:38:18.795Z,14.50
2022-10-13T15:41:30.486Z,14.35
2022-10-13T15:45:09.529Z,14.26
2022-10-13T15:47:58.120Z,14.17
2022-10-13T15:51:14.279Z,14.08
2022-10-13T15:54:28.252Z,14.00
2022-10-13T15:57:39.886Z,13.89
2022-10-13T16:00:52.136Z,13.76
2022-10-13T16:04:04.015Z,13.63
2022-10-13T16:07:16.218Z,13.62
2022-10-13T16:10:28.204Z,13.54
2022-10-13T16:13:45.556Z,13.49
2022-10-13T16:16:59.148Z,13.46
2022-10-13T16:20:13.437Z,13.45
2022-10-13T16:23:25.121Z,13.42
2022-10-13T16:26:36.743Z,13.28
2022-10-13T16:29:48.441Z,13.18
2022-10-13T16:33:00.113Z,13.09
2022-10-13T16:36:15.430Z,13.01
2022-10-13T16:39:28.537Z,13.01
2022-10-13T16:42:41.823Z,12.94
2022-10-13T16:46:02.950Z,12.93
2022-10-13T16:49:15.651Z,12.77
2022-10-13T16:56:44.705Z,12.41
2022-10-13T16:59:58.950Z,12.33
2022-10-13T17:03:14.491Z,12.20
2022-10-13T17:06:29.043Z,12.18
2022-10-13T17:09:40.997Z,12.14
2022-10-13T17:12:52.996Z,12.15
2022-10-13T17:16:05.742Z,12.09
2022-10-13T17:19:18.100Z,12.00
2022-10-13T17:22:30.022Z,11.95
2022-10-13T17:25:42.982Z,11.90
2022-10-13T17:28:55.431Z,11.89
2022-10-13T17:32:07.330Z,11.86
2022-10-13T17:35:19.567Z,11.71
2022-10-13T17:38:31.712Z,11.55
2022-10-13T17:41:43.851Z,11.46
2022-10-13T17:44:57.589Z,11.35
2022-10-13T17:48:12.998Z,11.24
2022-10-13T17:51:25.910Z,11.16
2022-10-13T17:54:37.992Z,11.26
2022-10-13T17:57:49.884Z,11.34
2022-10-13T18:01:14.380Z,11.34
2022-10-13T18:04:23.613Z,11.39
2022-10-13T18:11:53.775Z,11.40
2022-10-13T18:15:05.708Z,11.34
2022-10-13T18:18:17.635Z,11.26
2022-10-13T18:21:30.959Z,11.23
2022-10-13T18:24:42.918Z,11.18
2022-10-13T18:27:54.827Z,11.14
2022-10-13T18:31:16.127Z,11.06
2022-10-13T18:34:28.129Z,11.05
2022-10-13T18:37:40.148Z,11.08
2022-10-13T18:40:51.921Z,11.00
2022-10-13T18:44:03.959Z,10.88
2022-10-13T18:47:15.994Z,10.84
2022-10-13T18:50:27.921Z,10.71
2022-10-13T18:53:40.639Z,10.58
2022-10-13T18:56:52.826Z,10.51
2022-10-13T19:00:06.199Z,10.39
2022-10-13T19:03:17.923Z,10.30
2022-10-13T19:06:32.883Z,10.29
2022-10-13T19:09:44.644Z,10.30
2022-10-13T19:12:56.797Z,10.24
2022-10-13T19:16:11.363Z,10.22
2022-10-13T19:19:23.277Z,10.26
2022-10-13T19:22:36.967Z,10.18
2022-10-13T19:25:50.968Z,10.04
2022-10-13T19:29:05.781Z,10.07
2022-10-13T19:32:18.100Z,10.09
2022-10-13T19:35:30.135Z,10.01
2022-10-13T19:38:42.413Z,9.91
2022-10-13T19:41:56.033Z,9.86
2022-10-13T19:45:10.988Z,9.80
2022-10-13T19:48:23.185Z,9.79
2022-10-13T19:51:35.121Z,9.75
2022-10-13T19:54:47.115Z,9.73
2022-10-13T19:57:58.829Z,9.58
2022-10-13T20:01:12.668Z,9.55
2022-10-13T20:04:25.440Z,9.48
2022-10-13T20:07:37.108Z,9.45
2022-10-13T20:10:51.167Z,9.27
2022-10-13T20:14:03.071Z,9.24
2022-10-13T20:17:14.945Z,9.23
2022-10-13T20:20:26.772Z,9.21
2022-10-13T20:23:40.684Z,9.22
2022-10-13T20:26:52.612Z,9.18
2022-10-13T20:30:06.615Z,9.10
2022-10-13T20:33:18.377Z,9.08
2022-10-13T20:36:37.480Z,8.90
2022-10-13T20:39:46.628Z,8.72
2022-10-13T20:43:00.104Z,8.77
2022-10-13T20:46:13.887Z,8.79
2022-10-13T20:49:29.245Z,8.76
2022-10-13T20:52:41.490Z,8.77
2022-10-13T20:56:02.415Z,8.68
2022-10-13T20:59:18.620Z,8.61
2022-10-13T21:02:30.297Z,8.58
2022-10-13T21:05:42.087Z,8.53
2022-10-13T21:08:54.393Z,8.53
2022-10-13T21:12:06.146Z,8.48
2022-10-13T21:15:18.810Z,8.45
2022-10-13T21:18:30.784Z,8.44
2022-10-13T21:21:43.040Z,8.39
2022-10-13T21:24:54.953Z,8.39
2022-10-13T21:28:07.377Z,8.33
2022-10-13T21:31:21.876Z,8.29
2022-10-13T21:34:33.971Z,8.26
2022-10-13T21:37:46.653Z,8.20
2022-10-13T21:40:59.501Z,8.18
2022-10-13T21:44:11.727Z,8.20
2022-10-13T21:47:23.646Z,8.16
2022-10-13T21:50:36.683Z,8.14
2022-10-13T21:53:50.996Z,8.10
2022-10-13T21:57:02.964Z,8.06
2022-10-13T22:00:22.052Z,8.07
2022-10-13T22:03:34.751Z,8.09
2022-10-13T22:06:46.901Z,8.13
2022-10-13T22:09:58.595Z,8.15
2022-10-13T22:13:10.249Z,8.19
2022-10-13T22:16:24.986Z,8.22
2022-10-13T22:19:36.907Z,8.25
2022-10-13T22:22:48.606Z,8.26
2022-10-13T22:26:00.319Z,8.30
2022-10-13T22:29:14.494Z,8.36
2022-10-13T22:32:27.717Z,8.41
2022-10-13T22:35:41.134Z,8.40
2022-10-13T22:38:54.990Z,8.48
2022-10-13T22:42:06.913Z,8.51
2022-10-13T22:45:19.562Z,8.51
2022-10-13T22:48:31.425Z,8.58
2022-10-13T22:51:43.860Z,8.59
2022-10-13T22:54:55.983Z,8.53
2022-10-13T22:58:07.729Z,8.55
2022-10-13T23:01:21.297Z,8.61
2022-10-13T23:04:33.748Z,8.59
2022-10-13T23:07:45.667Z,8.65
2022-10-13T23:10:57.605Z,8.70
2022-10-13T23:14:10.053Z,8.73
2022-10-13T23:17:22.468Z,8.70
2022-10-13T23:20:36.137Z,8.62
2022-10-13T23:23:48.960Z,8.58
2022-10-13T23:27:01.407Z,8.58
2022-10-13T23:30:17.890Z,8.56
2022-10-13T23:33:29.613Z,8.63
2022-10-13T23:36:41.353Z,8.71
2022-10-13T23:39:53.373Z,8.67
2022-10-13T23:43:05.163Z,8.69
2022-10-13T23:46:17.279Z,8.70
2022-10-13T23:49:29.145Z,8.63
2022-10-13T23:52:41.277Z,8.57
2022-10-13T23:55:53.543Z,8.56
2022-10-13T23:59:08.223Z,8.47
